KMZZ/MZZ METAR and TAF weather

Enter ICAO airport designator
Station Type Date Time Source
KMZZ METAR 2020/04/05 18:15 UTC NOAA

KMZZ 051815Z AUTO 08003KT 10SM OVC023 10/07 A3015 RMK AO2 T01020066


Station Type Date Time Source
KMZZ Decoded METAR 2020/04/05 18:15 UTC NOAA

Station name not available
Apr 05, 2020 - 02:15 PM EDT / 2020.04.05 1815 UTC
Wind: from the E (080 degrees) at 3 MPH (3 KT):0
Visibility: 10 mile(s):0
Sky conditions: overcast
Temperature: 50.4 F (10.2 C)
Dew Point: 43.9 F (6.6 C)
Relative Humidity: 78%
Pressure (altimeter): 30.15 in. Hg (1020 hPa)
ob: KMZZ 051815Z AUTO 08003KT 10SM OVC023 10/07 A3015 RMK AO2 T01020066
cycle: 18

Station Type Date Time Source
KMZZ TAF UTC NOAA

Error!

Example: see airport list